Bosporus — V2QY — position and weather

sailwx.info

Track history (hours):
 
Tides and Currents Weather Stations Pressure Air Temp Water Temp Dewpoint Dewpoint Depression Visibility Wind Speed Wind Dir Waves Ship Positions

Bosporus

Last reported at 2017-Feb-24 08:10 UTC. Time now 2017-Feb-26 21:54 UTC.
Position N 43°15' E 004°11'.

Length 100 m; draft 5.5 m.

Type: Cargo ship. MMSI: 304010802.

Date/timePositionNaut miles runAvg speedWind from/ knotsBaromVisibWave heightAir tempDewpointWater temp
2017-Feb-24 08:10N 43°15' E 004°11'20 9.8
2017-Feb-24 06:11N 43°16' E 004°38'16 7.6
2017-Feb-24 04:09N 43°23' E 004°57'4 0.3
2017-Feb-23 14:14N 43°25' E 004°53'18 8.8
2017-Feb-23 12:14N 43°08' E 004°57'14210.9
2017-Feb-22 23:14N 41°29' E 002°40'2210.9
2017-Feb-22 21:15N 41°16' E 002°17'911.0
2017-Feb-22 20:26N 41°13' E 002°05'1011.1
2017-Feb-22 19:31N 41°10' E 001°52'1 0.0
2017-Feb-21 18:28N 41°10' E 001°53'910.1
2017-Feb-21 17:33N 41°13' E 002°05'171 8.9
2017-Feb-20 22:24N 43°16' E 004°45'11 0.4
2017-Feb-19 20:26N 43°16' E 005°01'16 7.9
2017-Feb-19 18:28N 43°03' E 004°50'18 9.0
2017-Feb-19 16:29N 42°50' E 004°33'  
Track history (hours):
 
Tides and Currents Weather Stations Pressure Air Temp Water Temp Dewpoint Dewpoint Depression Visibility Wind Speed Wind Dir Waves Ship Positions

Bosporus

Last reported at 2017-Feb-24 08:10 UTC. Time now 2017-Feb-26 21:54 UTC.
Position N 43°15' E 004°11'.

Length 100 m; draft 5.5 m.

Type: Cargo ship. MMSI: 304010802.

Date/timePositionNaut miles runAvg speedWind from/ knotsBaromVisibWave heightAir tempDewpointWater temp
2017-Feb-24 08:10N 43°15' E 004°11'20 9.8
2017-Feb-24 06:11N 43°16' E 004°38'16 7.6
2017-Feb-24 04:09N 43°23' E 004°57'4 0.3
2017-Feb-23 14:14N 43°25' E 004°53'18 8.8
2017-Feb-23 12:14N 43°08' E 004°57'14210.9
2017-Feb-22 23:14N 41°29' E 002°40'2210.9
2017-Feb-22 21:15N 41°16' E 002°17'911.0
2017-Feb-22 20:26N 41°13' E 002°05'1011.1
2017-Feb-22 19:31N 41°10' E 001°52'1 0.0
2017-Feb-21 18:28N 41°10' E 001°53'910.1
2017-Feb-21 17:33N 41°13' E 002°05'171 8.9
2017-Feb-20 22:24N 43°16' E 004°45'11 0.4
2017-Feb-19 20:26N 43°16' E 005°01'16 7.9
2017-Feb-19 18:28N 43°03' E 004°50'18 9.0
2017-Feb-19 16:29N 42°50' E 004°33'  

Dump ship's entire track history